createdAt,value
2018-08-06T00:00:12.323Z,6.33
2018-08-06T00:02:40.576Z,5.80
2018-08-06T00:05:08.815Z,5.23
2018-08-06T00:07:37.004Z,6.37
2018-08-06T00:10:08.750Z,5.93
2018-08-06T00:12:36.914Z,5.43
2018-08-06T00:15:07.477Z,5.67
2018-08-06T00:17:35.642Z,6.90
2018-08-06T00:20:04.623Z,5.47
2018-08-06T00:22:32.794Z,6.90
2018-08-06T00:25:00.960Z,5.60
2018-08-06T00:27:29.352Z,6.90
2018-08-06T00:29:57.794Z,5.30
2018-08-06T00:32:25.954Z,6.37
2018-08-06T00:34:54.890Z,5.40
2018-08-06T00:37:23.190Z,5.87
2018-08-06T00:39:51.542Z,5.37
2018-08-06T00:42:19.734Z,6.00
2018-08-06T00:44:47.898Z,4.97
2018-08-06T00:47:16.164Z,5.57
2018-08-06T00:49:44.368Z,7.57
2018-08-06T00:52:12.573Z,6.43
2018-08-06T00:54:40.745Z,5.30
2018-08-06T00:57:08.910Z,6.83
2018-08-06T00:59:37.105Z,5.90
2018-08-06T01:02:05.462Z,7.23
2018-08-06T01:04:33.918Z,7.47
2018-08-06T01:07:02.129Z,6.30
2018-08-06T01:09:30.281Z,6.40
2018-08-06T01:11:58.442Z,7.27
2018-08-06T01:14:26.602Z,8.40
2018-08-06T01:16:54.790Z,6.63
2018-08-06T01:19:22.965Z,7.47
2018-08-06T01:21:51.150Z,5.37
2018-08-06T01:24:19.607Z,5.60
2018-08-06T01:26:47.786Z,5.27
2018-08-06T01:29:15.958Z,7.87
2018-08-06T01:31:44.418Z,5.63
2018-08-06T01:34:12.377Z,6.13
2018-08-06T01:36:40.591Z,7.73
2018-08-06T01:39:10.472Z,6.87
2018-08-06T01:41:38.679Z,7.17
2018-08-06T01:44:07.222Z,7.30
2018-08-06T01:46:35.150Z,6.43
2018-08-06T01:49:03.351Z,7.30
2018-08-06T01:51:31.970Z,6.13
2018-08-06T01:54:00.163Z,7.20
2018-08-06T01:56:28.592Z,6.90
2018-08-06T01:58:56.767Z,7.43
2018-08-06T02:01:24.858Z,6.93
2018-08-06T02:03:53.223Z,5.87
2018-08-06T02:06:21.157Z,7.80
2018-08-06T02:08:49.342Z,6.83
2018-08-06T02:11:17.547Z,9.63
2018-08-06T02:13:45.781Z,5.80
2018-08-06T02:16:13.980Z,7.47
2018-08-06T02:18:41.935Z,5.50
2018-08-06T02:21:10.107Z,8.60
2018-08-06T02:23:38.290Z,6.53
2018-08-06T02:26:06.723Z,7.70
2018-08-06T02:28:34.914Z,6.40
2018-08-06T02:31:03.103Z,6.93
2018-08-06T02:33:31.288Z,6.57
2018-08-06T02:35:59.446Z,7.03
2018-08-06T02:38:27.629Z,6.27
2018-08-06T02:40:55.798Z,7.67
2018-08-06T02:43:23.733Z,5.17
2018-08-06T02:45:51.914Z,7.90
2018-08-06T02:48:20.922Z,7.97
2018-08-06T02:50:49.115Z,6.37
2018-08-06T02:53:17.361Z,7.10
2018-08-06T02:55:45.547Z,6.80
2018-08-06T02:58:13.743Z,7.30
2018-08-06T03:00:41.931Z,6.60
2018-08-06T03:03:10.107Z,8.60
2018-08-06T03:05:38.280Z,6.70
2018-08-06T03:08:06.590Z,6.67
2018-08-06T03:10:34.778Z,9.63
2018-08-06T03:13:02.974Z,7.70
2018-08-06T03:15:31.449Z,6.33
2018-08-06T03:17:59.619Z,8.50
2018-08-06T03:20:27.766Z,7.43
2018-08-06T03:22:55.918Z,6.17
2018-08-06T03:25:24.095Z,7.07
2018-08-06T03:27:52.255Z,7.47
2018-08-06T03:30:20.452Z,7.60
2018-08-06T03:32:48.979Z,7.57
2018-08-06T03:35:17.172Z,8.67
2018-08-06T03:37:45.348Z,6.73
2018-08-06T03:40:13.573Z,6.70
2018-08-06T03:42:41.690Z,7.50
2018-08-06T03:45:11.162Z,8.57
2018-08-06T03:47:39.758Z,7.67
2018-08-06T03:50:09.144Z,9.27
2018-08-06T03:52:37.259Z,7.10
2018-08-06T03:55:06.730Z,11.23
2018-08-06T03:57:34.947Z,7.67
2018-08-06T04:00:03.759Z,7.60
2018-08-06T04:02:31.910Z,8.53
2018-08-06T04:05:00.084Z,6.70
2018-08-06T04:07:28.247Z,10.30
2018-08-06T04:09:56.418Z,7.27
2018-08-06T04:12:24.612Z,8.37
2018-08-06T04:14:52.845Z,7.17
2018-08-06T04:17:21.011Z,8.80
2018-08-06T04:19:49.291Z,7.03
2018-08-06T04:22:17.551Z,8.60
2018-08-06T04:24:45.710Z,7.17
2018-08-06T04:27:13.642Z,7.43
2018-08-06T04:29:41.810Z,8.90
2018-08-06T04:32:09.979Z,7.77
2018-08-06T04:34:38.154Z,11.13
2018-08-06T04:37:06.337Z,8.53
2018-08-06T04:39:34.506Z,7.20
2018-08-06T04:42:02.666Z,8.80
2018-08-06T04:44:30.840Z,8.03
2018-08-06T04:46:58.990Z,7.33
2018-08-06T04:49:27.150Z,10.27
2018-08-06T04:51:55.322Z,9.40
2018-08-06T04:54:23.532Z,13.70
2018-08-06T04:56:51.700Z,10.87
2018-08-06T04:59:19.899Z,12.93
2018-08-06T05:01:48.355Z,9.83
2018-08-06T05:04:16.515Z,10.73
2018-08-06T05:06:44.679Z,10.50
2018-08-06T05:09:21.221Z,8.33
2018-08-06T05:11:49.618Z,10.50
2018-08-06T05:14:17.774Z,9.10
2018-08-06T05:16:45.951Z,9.10
2018-08-06T05:19:14.103Z,9.47
2018-08-06T05:21:42.276Z,8.97
2018-08-06T05:24:10.498Z,8.33
2018-08-06T05:26:38.714Z,9.13
2018-08-06T05:29:06.915Z,8.17
2018-08-06T05:31:34.892Z,7.57
2018-08-06T05:34:03.060Z,9.20
2018-08-06T05:36:31.218Z,8.47
2018-08-06T05:38:59.378Z,9.90
2018-08-06T05:41:27.578Z,8.70
2018-08-06T05:43:56.342Z,11.60
2018-08-06T05:46:24.731Z,7.17
2018-08-06T05:48:52.661Z,9.70
2018-08-06T05:51:20.834Z,9.10
2018-08-06T05:53:49.005Z,9.73
2018-08-06T05:56:17.170Z,8.80
2018-08-06T05:58:45.329Z,9.33
2018-08-06T06:01:13.497Z,10.27
2018-08-06T06:03:41.971Z,8.07
2018-08-06T06:06:10.225Z,10.60
2018-08-06T06:08:39.519Z,8.23
2018-08-06T06:11:08.437Z,9.77
2018-08-06T06:13:36.674Z,9.03
2018-08-06T06:16:04.854Z,10.57
2018-08-06T06:18:32.778Z,8.17
2018-08-06T06:21:00.942Z,10.30
2018-08-06T06:23:29.095Z,7.87
2018-08-06T06:25:57.276Z,10.53
2018-08-06T06:28:25.491Z,8.43
2018-08-06T06:30:54.102Z,8.70
2018-08-06T06:33:22.319Z,11.37
2018-08-06T06:35:50.494Z,9.03
2018-08-06T06:38:18.646Z,10.33
2018-08-06T06:40:46.825Z,11.87
2018-08-06T06:43:15.159Z,9.43
2018-08-06T06:45:43.086Z,11.13
2018-08-06T06:48:11.293Z,9.77
2018-08-06T06:50:39.475Z,11.83
2018-08-06T06:53:07.594Z,11.07
2018-08-06T06:55:35.801Z,10.93
2018-08-06T06:58:04.175Z,16.53
2018-08-06T07:00:32.343Z,12.23
2018-08-06T07:03:00.534Z,11.33
2018-08-06T07:05:28.544Z,13.47
2018-08-06T07:07:56.706Z,13.20
2018-08-06T07:10:24.884Z,12.50
2018-08-06T07:12:53.088Z,15.57
2018-08-06T07:15:21.356Z,12.93
2018-08-06T07:17:49.541Z,12.43
2018-08-06T07:20:19.413Z,14.43
2018-08-06T07:22:47.350Z,14.00
2018-08-06T07:25:15.394Z,17.33
2018-08-06T07:27:43.946Z,14.43
2018-08-06T07:30:13.486Z,12.80
2018-08-06T07:32:42.428Z,16.33
2018-08-06T07:35:11.921Z,16.23
2018-08-06T07:37:40.412Z,14.73
2018-08-06T07:40:11.360Z,15.73
2018-08-06T07:42:39.628Z,12.63
2018-08-06T07:45:11.993Z,14.93
2018-08-06T07:47:40.246Z,12.80
2018-08-06T07:50:09.278Z,14.13
2018-08-06T07:52:37.563Z,16.77
2018-08-06T07:55:05.831Z,16.10
2018-08-06T07:57:33.995Z,13.20
2018-08-06T08:00:02.178Z,12.60
2018-08-06T08:02:30.362Z,14.57
2018-08-06T08:04:58.558Z,15.07
2018-08-06T08:07:26.818Z,15.63
2018-08-06T08:09:55.306Z,12.93
2018-08-06T08:12:23.486Z,13.40
2018-08-06T08:14:51.658Z,17.77
2018-08-06T08:17:19.904Z,16.00
2018-08-06T08:19:48.145Z,15.57
2018-08-06T08:22:16.375Z,13.27
2018-08-06T08:24:44.595Z,11.97
2018-08-06T08:27:12.783Z,12.10
2018-08-06T08:29:41.438Z,11.40
2018-08-06T08:32:09.614Z,11.90
2018-08-06T08:34:37.801Z,11.43
2018-08-06T08:37:06.023Z,11.70
2018-08-06T08:39:34.212Z,11.17
2018-08-06T08:42:02.367Z,11.57
2018-08-06T08:44:30.559Z,10.30
2018-08-06T08:46:58.739Z,13.53
2018-08-06T08:49:26.681Z,10.97
2018-08-06T08:51:54.873Z,10.80
2018-08-06T08:54:22.817Z,13.73
2018-08-06T08:56:50.995Z,11.03
2018-08-06T08:59:19.186Z,10.07
2018-08-06T09:01:47.387Z,11.33
2018-08-06T09:04:15.631Z,12.10
2018-08-06T09:06:43.856Z,11.40
2018-08-06T09:09:13.170Z,12.50
2018-08-06T09:11:41.905Z,11.00
2018-08-06T09:14:10.162Z,10.00
2018-08-06T09:16:38.450Z,11.37
2018-08-06T09:19:06.646Z,11.43
2018-08-06T09:21:34.879Z,10.60
2018-08-06T09:24:03.387Z,10.80
2018-08-06T09:26:31.562Z,9.80
2018-08-06T09:28:59.746Z,9.88
2018-08-06T09:31:27.927Z,11.73
2018-08-06T09:33:56.128Z,10.18
2018-08-06T09:36:24.307Z,12.00
2018-08-06T09:38:52.495Z,10.58
2018-08-06T09:41:21.291Z,10.40
2018-08-06T09:43:49.235Z,10.55
2018-08-06T09:46:17.426Z,12.75
2018-08-06T09:48:45.884Z,8.78
2018-08-06T09:51:14.074Z,8.70
2018-08-06T09:53:42.249Z,8.35
2018-08-06T09:56:10.473Z,10.25
2018-08-06T09:58:38.709Z,14.78
2018-08-06T10:01:12.391Z,8.20
2018-08-06T10:03:40.578Z,9.05
2018-08-06T10:06:08.532Z,8.48
2018-08-06T10:08:36.694Z,10.98
2018-08-06T10:11:04.954Z,8.30
2018-08-06T10:13:33.130Z,6.85
2018-08-06T10:16:01.314Z,8.20
2018-08-06T10:18:29.498Z,6.83
2018-08-06T10:20:57.676Z,6.95
2018-08-06T10:23:25.834Z,6.78
2018-08-06T10:25:54.535Z,7.15
2018-08-06T10:28:22.962Z,6.40
2018-08-06T10:30:51.851Z,5.80
2018-08-06T10:33:20.026Z,5.25
2018-08-06T10:35:48.190Z,5.80
2018-08-06T10:38:16.350Z,8.48
2018-08-06T10:40:44.554Z,6.05
2018-08-06T10:43:12.740Z,5.60
2018-08-06T10:45:41.029Z,5.55
2018-08-06T10:48:09.267Z,5.65
2018-08-06T10:50:37.509Z,5.25
2018-08-06T10:53:05.446Z,5.00
2018-08-06T10:55:33.679Z,5.35
2018-08-06T10:58:01.867Z,5.42
2018-08-06T11:00:30.070Z,5.55
2018-08-06T11:02:58.242Z,6.10
2018-08-06T11:05:26.410Z,5.95
2018-08-06T11:07:54.580Z,5.53
2018-08-06T11:10:23.910Z,5.53
2018-08-06T11:12:51.838Z,5.17
2018-08-06T11:15:22.302Z,5.60
2018-08-06T11:17:50.264Z,5.37
2018-08-06T11:20:19.006Z,6.00
2018-08-06T11:22:47.167Z,6.12
2018-08-06T11:25:17.249Z,5.58
2018-08-06T11:27:46.077Z,6.15
2018-08-06T11:30:16.971Z,5.58
2018-08-06T11:32:45.659Z,6.30
2018-08-06T11:35:14.658Z,6.67
2018-08-06T11:37:43.030Z,6.25
2018-08-06T11:40:11.985Z,6.50
2018-08-06T11:42:41.315Z,5.83
2018-08-06T11:45:10.347Z,6.58
2018-08-06T11:47:38.569Z,6.40
2018-08-06T11:50:07.502Z,6.75
2018-08-06T11:52:35.703Z,6.72
2018-08-06T11:55:04.362Z,6.25
2018-08-06T11:57:32.556Z,6.70
2018-08-06T12:00:00.869Z,6.55
2018-08-06T12:02:29.025Z,7.78
2018-08-06T12:04:57.214Z,6.35
2018-08-06T12:07:25.395Z,6.15
2018-08-06T12:09:53.339Z,7.10
2018-08-06T12:12:21.522Z,7.60
2018-08-06T12:14:49.705Z,6.25
2018-08-06T12:17:17.652Z,6.42
2018-08-06T12:19:45.814Z,6.15
2018-08-06T12:22:13.982Z,5.35
2018-08-06T12:24:42.170Z,6.70
2018-08-06T12:27:10.428Z,6.47
2018-08-06T12:29:38.522Z,6.87
2018-08-06T12:32:06.719Z,7.85
2018-08-06T12:34:34.916Z,8.23
2018-08-06T12:37:03.105Z,6.67
2018-08-06T12:39:31.496Z,7.55
2018-08-06T12:41:59.658Z,6.60
2018-08-06T12:44:27.822Z,7.08
2018-08-06T12:46:56.007Z,6.62
2018-08-06T12:49:24.162Z,9.78
2018-08-06T12:51:52.355Z,6.25
2018-08-06T12:54:20.502Z,6.45
2018-08-06T12:56:48.658Z,5.17
2018-08-06T12:59:16.834Z,8.20
2018-08-06T13:01:45.006Z,6.83
2018-08-06T13:04:13.162Z,6.47
2018-08-06T13:06:41.366Z,5.53
2018-08-06T13:09:10.485Z,7.20
2018-08-06T13:11:39.283Z,5.70
2018-08-06T13:14:07.610Z,6.00
2018-08-06T13:16:35.806Z,8.53
2018-08-06T13:19:04.043Z,5.60
2018-08-06T13:21:32.506Z,6.47
2018-08-06T13:24:00.920Z,7.47
2018-08-06T13:26:29.143Z,5.10
2018-08-06T13:28:57.386Z,5.58
2018-08-06T13:31:25.679Z,5.58
2018-08-06T13:33:54.167Z,6.12
2018-08-06T13:36:22.348Z,5.85
2018-08-06T13:38:50.532Z,6.83
2018-08-06T13:41:18.805Z,5.95
2018-08-06T13:43:46.742Z,5.00
2018-08-06T13:46:14.914Z,6.47
2018-08-06T13:48:43.107Z,6.65
2018-08-06T13:51:11.282Z,5.50
2018-08-06T13:53:39.477Z,5.12
2018-08-06T13:56:07.746Z,5.30
2018-08-06T13:58:35.702Z,5.40
2018-08-06T14:01:03.887Z,5.58
2018-08-06T14:03:32.078Z,5.28
2018-08-06T14:06:00.254Z,6.00
2018-08-06T14:08:28.437Z,5.40
2018-08-06T14:10:56.630Z,6.22
2018-08-06T14:13:24.846Z,5.12
2018-08-06T14:15:52.815Z,5.33
2018-08-06T14:18:21.043Z,4.67
2018-08-06T14:20:49.471Z,5.55
2018-08-06T14:23:17.633Z,5.37
2018-08-06T14:25:46.018Z,6.92
2018-08-06T14:28:14.179Z,5.30
2018-08-06T14:30:42.338Z,5.08
2018-08-06T14:33:10.511Z,4.92
2018-08-06T14:35:38.707Z,6.50
2018-08-06T14:38:06.642Z,5.00
2018-08-06T14:40:34.831Z,5.47
2018-08-06T14:43:03.063Z,5.15
2018-08-06T14:45:31.354Z,6.10
2018-08-06T14:47:59.514Z,6.00
2018-08-06T14:50:27.674Z,5.30
2018-08-06T14:52:55.858Z,5.60
2018-08-06T14:55:24.063Z,6.50
2018-08-06T14:57:52.222Z,4.97
2018-08-06T15:00:22.382Z,4.72
2018-08-06T15:02:51.286Z,4.95
2018-08-06T15:05:19.459Z,5.20
2018-08-06T15:07:48.025Z,4.37
2018-08-06T15:10:16.214Z,5.50
2018-08-06T15:12:44.545Z,5.35
2018-08-06T15:15:14.129Z,4.92
2018-08-06T15:17:42.859Z,5.08
2018-08-06T15:20:14.244Z,6.92
2018-08-06T15:22:42.422Z,4.67
2018-08-06T15:25:13.541Z,4.22
2018-08-06T15:27:42.220Z,4.60
2018-08-06T15:30:10.739Z,5.40
2018-08-06T15:32:39.296Z,4.72
2018-08-06T15:35:08.443Z,4.22
2018-08-06T15:37:37.146Z,4.42
2018-08-06T15:40:05.158Z,4.30
2018-08-06T15:42:33.390Z,4.97
2018-08-06T15:45:01.334Z,5.53
2018-08-06T15:47:29.484Z,9.38
2018-08-06T15:49:58.118Z,8.18
2018-08-06T15:52:26.097Z,6.30
2018-08-06T15:54:54.367Z,4.45
2018-08-06T15:57:22.547Z,6.37
2018-08-06T15:59:50.715Z,5.40
2018-08-06T16:02:18.977Z,5.00
2018-08-06T16:04:47.215Z,4.85
2018-08-06T16:07:15.415Z,5.47
2018-08-06T16:09:43.602Z,5.35
2018-08-06T16:12:11.583Z,6.00
2018-08-06T16:14:39.742Z,5.78
2018-08-06T16:17:07.746Z,6.42
2018-08-06T16:19:35.958Z,5.20
2018-08-06T16:22:04.169Z,6.30
2018-08-06T16:24:32.330Z,6.20
2018-08-06T16:27:00.503Z,4.62
2018-08-06T16:29:28.724Z,5.35
2018-08-06T16:31:56.977Z,4.78
2018-08-06T16:34:25.415Z,5.03
2018-08-06T16:36:53.575Z,5.10
2018-08-06T16:39:21.778Z,4.65
2018-08-06T16:41:49.942Z,4.33
2018-08-06T16:44:18.151Z,4.87
2018-08-06T16:46:46.403Z,4.15
2018-08-06T16:49:14.474Z,4.58
2018-08-06T16:51:42.942Z,4.10
2018-08-06T16:54:10.866Z,4.37
2018-08-06T16:56:39.030Z,4.90
2018-08-06T16:59:07.350Z,4.33
2018-08-06T17:01:35.286Z,4.60
2018-08-06T17:04:03.451Z,5.47
2018-08-06T17:06:31.717Z,3.50
2018-08-06T17:08:59.845Z,17.67
2018-08-06T17:11:28.096Z,9.20
2018-08-06T17:13:57.111Z,9.93
2018-08-06T17:16:25.203Z,7.53
2018-08-06T17:18:53.687Z,8.48
2018-08-06T17:21:21.862Z,5.60
2018-08-06T17:23:50.015Z,3.80
2018-08-06T17:26:18.179Z,6.17
2018-08-06T17:28:46.377Z,5.08
2018-08-06T17:31:14.542Z,5.70
2018-08-06T17:33:42.714Z,4.15
2018-08-06T17:36:10.879Z,4.22
2018-08-06T17:38:39.039Z,4.50
2018-08-06T17:41:07.366Z,4.15
2018-08-06T17:43:35.534Z,4.50
2018-08-06T17:46:04.031Z,5.83
2018-08-06T17:48:32.206Z,4.75
2018-08-06T17:51:00.378Z,4.30
2018-08-06T17:53:28.558Z,4.42
2018-08-06T17:55:56.773Z,4.00
2018-08-06T17:58:25.031Z,4.60
2018-08-06T18:00:53.041Z,4.53
2018-08-06T18:03:21.497Z,4.10
2018-08-06T18:05:50.057Z,5.87
2018-08-06T18:08:18.014Z,4.45
2018-08-06T18:10:46.252Z,5.05
2018-08-06T18:13:14.483Z,5.15
2018-08-06T18:15:42.727Z,4.85
2018-08-06T18:18:10.979Z,5.17
2018-08-06T18:20:39.234Z,4.10
2018-08-06T18:23:07.477Z,4.90
2018-08-06T18:25:35.743Z,5.97
2018-08-06T18:28:04.020Z,4.50
2018-08-06T18:30:31.995Z,5.00
2018-08-06T18:33:00.243Z,4.40
2018-08-06T18:35:28.431Z,4.55
2018-08-06T18:37:56.773Z,4.58
2018-08-06T18:40:24.947Z,4.87
2018-08-06T18:42:53.144Z,4.67
2018-08-06T18:45:21.862Z,5.12
2018-08-06T18:47:50.990Z,4.83
2018-08-06T18:50:19.623Z,5.72
2018-08-06T18:52:48.855Z,5.37
2018-08-06T18:55:17.429Z,6.25
2018-08-06T18:57:45.916Z,5.17
2018-08-06T19:00:18.344Z,4.78
2018-08-06T19:02:46.315Z,5.72
2018-08-06T19:05:14.497Z,7.10
2018-08-06T19:07:42.484Z,5.30
2018-08-06T19:10:11.351Z,7.00
2018-08-06T19:12:44.884Z,5.65
2018-08-06T19:15:13.474Z,5.70
2018-08-06T19:17:47.066Z,6.10
2018-08-06T19:20:15.529Z,5.17
2018-08-06T19:22:43.935Z,6.00
2018-08-06T19:25:32.510Z,4.90
2018-08-06T19:28:00.706Z,5.60
2018-08-06T19:30:34.018Z,5.55
2018-08-06T19:33:02.533Z,6.80
2018-08-06T19:35:31.067Z,6.33
2018-08-06T19:37:58.993Z,6.85
2018-08-06T19:40:27.167Z,6.40
2018-08-06T19:43:00.759Z,8.45
2018-08-06T19:45:29.076Z,6.75
2018-08-06T19:47:57.346Z,6.78
2018-08-06T19:50:30.886Z,6.95
2018-08-06T19:52:59.052Z,7.97
2018-08-06T19:55:32.643Z,6.55
2018-08-06T19:58:00.877Z,6.70
2018-08-06T20:00:29.089Z,7.80
2018-08-06T20:02:57.259Z,6.83
2018-08-06T20:05:25.438Z,7.60
2018-08-06T20:07:53.594Z,6.53
2018-08-06T20:10:21.882Z,6.80
2018-08-06T20:12:50.270Z,8.23
2018-08-06T20:15:19.538Z,6.70
2018-08-06T20:17:48.278Z,8.07
2018-08-06T20:20:16.487Z,6.20
2018-08-06T20:22:44.976Z,7.57
2018-08-06T20:25:15.929Z,6.17
2018-08-06T20:27:44.596Z,7.23
2018-08-06T20:30:13.073Z,6.67
2018-08-06T20:32:40.993Z,8.20
2018-08-06T20:35:12.579Z,6.60
2018-08-06T20:37:41.832Z,7.67
2018-08-06T20:40:11.779Z,8.13
2018-08-06T20:42:41.198Z,6.40
2018-08-06T20:45:12.572Z,6.30
2018-08-06T20:47:41.484Z,6.77
2018-08-06T20:50:14.482Z,6.73
2018-08-06T20:52:42.710Z,7.10
2018-08-06T20:55:11.306Z,6.83
2018-08-06T20:57:39.658Z,6.20
2018-08-06T21:00:10.197Z,7.07
2018-08-06T21:02:38.594Z,9.83
2018-08-06T21:05:06.590Z,6.80
2018-08-06T21:07:34.750Z,7.17
2018-08-06T21:10:03.069Z,6.43
2018-08-06T21:12:31.187Z,6.70
2018-08-06T21:14:59.345Z,6.87
2018-08-06T21:17:27.514Z,6.80
2018-08-06T21:19:55.683Z,6.43
2018-08-06T21:22:24.360Z,6.13
2018-08-06T21:24:52.534Z,7.47
2018-08-06T21:27:20.714Z,7.73
2018-08-06T21:29:49.004Z,6.70
2018-08-06T21:32:17.166Z,7.00
2018-08-06T21:34:45.399Z,6.53
2018-08-06T21:37:13.597Z,7.67
2018-08-06T21:39:41.879Z,6.73
2018-08-06T21:42:09.849Z,6.83
2018-08-06T21:44:37.822Z,6.50
2018-08-06T21:47:05.992Z,7.37
2018-08-06T21:49:34.287Z,7.10
2018-08-06T21:52:02.458Z,7.07
2018-08-06T21:54:30.627Z,6.00
2018-08-06T21:56:59.098Z,6.27
2018-08-06T21:59:27.254Z,6.40
2018-08-06T22:01:55.251Z,5.93
2018-08-06T22:04:23.410Z,6.30
2018-08-06T22:06:51.579Z,5.73
2018-08-06T22:09:19.784Z,6.13
2018-08-06T22:11:48.283Z,5.43
2018-08-06T22:14:16.490Z,7.60
2018-08-06T22:16:44.663Z,6.67
2018-08-06T22:19:12.635Z,6.23
2018-08-06T22:21:40.827Z,6.30
2018-08-06T22:24:09.059Z,5.93
2018-08-06T22:26:37.615Z,6.10
2018-08-06T22:29:06.064Z,6.37
2018-08-06T22:31:34.323Z,6.97
2018-08-06T22:34:02.645Z,7.20
2018-08-06T22:36:30.767Z,6.23
2018-08-06T22:38:58.938Z,6.70
2018-08-06T22:41:27.119Z,6.10
2018-08-06T22:43:55.309Z,5.87
2018-08-06T22:46:23.866Z,6.60
2018-08-06T22:48:51.791Z,6.97
2018-08-06T22:51:19.976Z,5.90
2018-08-06T22:53:48.154Z,5.87
2018-08-06T22:56:16.351Z,6.53
2018-08-06T22:58:44.526Z,6.27
2018-08-06T23:01:12.458Z,5.30
2018-08-06T23:03:40.891Z,7.03
2018-08-06T23:06:09.594Z,6.03
2018-08-06T23:08:37.844Z,5.97
2018-08-06T23:11:06.312Z,5.93
2018-08-06T23:13:34.544Z,5.43
2018-08-06T23:16:02.856Z,6.17
2018-08-06T23:18:31.051Z,7.43
2018-08-06T23:20:59.210Z,6.30
2018-08-06T23:23:27.394Z,6.87
2018-08-06T23:25:55.571Z,6.30
2018-08-06T23:28:23.742Z,6.17
2018-08-06T23:30:51.909Z,5.97
2018-08-06T23:33:20.078Z,6.47
2018-08-06T23:35:48.250Z,6.87
2018-08-06T23:38:16.643Z,6.43
2018-08-06T23:40:44.811Z,6.37
2018-08-06T23:43:12.978Z,6.97
2018-08-06T23:45:41.138Z,7.37
2018-08-06T23:48:09.301Z,7.30
2018-08-06T23:50:37.507Z,8.67
2018-08-06T23:53:05.813Z,5.80
2018-08-06T23:55:33.956Z,7.03
2018-08-06T23:58:02.139Z,6.30
